createdAt,value
2018-04-12T00:02:22.377Z,9.20
2018-04-12T00:04:50.678Z,9.20
2018-04-12T00:07:18.204Z,9.10
2018-04-12T00:09:45.724Z,9.10
2018-04-12T00:12:13.257Z,9.10
2018-04-12T00:14:40.783Z,9.10
2018-04-12T00:17:08.309Z,9.10
2018-04-12T00:19:35.876Z,9.10
2018-04-12T00:22:03.526Z,9.10
2018-04-12T00:24:31.049Z,9.10
2018-04-12T00:26:59.361Z,9.10
2018-04-12T00:29:26.885Z,9.00
2018-04-12T00:31:55.173Z,9.00
2018-04-12T00:34:22.741Z,9.00
2018-04-12T00:36:50.319Z,9.00
2018-04-12T00:39:17.857Z,9.00
2018-04-12T00:41:45.413Z,9.00
2018-04-12T00:44:13.821Z,8.90
2018-04-12T00:46:41.349Z,8.80
2018-04-12T00:49:09.761Z,8.80
2018-04-12T00:51:37.295Z,8.80
2018-04-12T00:54:05.595Z,8.70
2018-04-12T00:56:33.130Z,8.70
2018-04-12T00:59:01.425Z,8.60
2018-04-12T01:01:28.994Z,8.60
2018-04-12T01:03:56.542Z,8.50
2018-04-12T01:06:24.080Z,8.50
2018-04-12T01:08:52.390Z,8.50
2018-04-12T01:11:19.935Z,8.40
2018-04-12T01:13:48.243Z,8.50
2018-04-12T01:16:15.799Z,8.40
2018-04-12T01:18:43.361Z,8.50
2018-04-12T01:21:10.890Z,8.50
2018-04-12T01:23:39.198Z,8.60
2018-04-12T01:26:06.758Z,8.60
2018-04-12T01:28:34.302Z,8.60
2018-04-12T01:31:01.882Z,8.60
2018-04-12T01:33:29.436Z,8.70
2018-04-12T01:35:56.970Z,8.60
2018-04-12T01:38:25.279Z,8.60
2018-04-12T01:40:52.836Z,8.60
2018-04-12T01:43:20.403Z,8.60
2018-04-12T01:45:47.959Z,8.60
2018-04-12T01:48:15.517Z,8.50
2018-04-12T01:50:43.043Z,8.50
2018-04-12T01:53:11.381Z,8.50
2018-04-12T01:55:38.945Z,8.50
2018-04-12T01:58:06.480Z,8.50
2018-04-12T02:00:34.035Z,8.60
2018-04-12T02:03:01.586Z,8.60
2018-04-12T02:05:29.165Z,8.60
2018-04-12T02:07:56.697Z,8.60
2018-04-12T02:10:25.107Z,8.60
2018-04-12T02:12:52.644Z,8.60
2018-04-12T02:15:20.235Z,8.60
2018-04-12T02:17:47.790Z,8.60
2018-04-12T02:20:15.350Z,8.50
2018-04-12T02:22:42.920Z,8.60
2018-04-12T02:25:10.472Z,8.50
2018-04-12T02:27:38.034Z,8.50
2018-04-12T02:30:05.570Z,8.40
2018-04-12T02:32:33.255Z,8.50
2018-04-12T02:35:00.793Z,8.50
2018-04-12T02:37:28.339Z,8.40
2018-04-12T02:39:56.641Z,8.30
2018-04-12T02:42:24.215Z,8.30
2018-04-12T02:44:51.772Z,8.30
2018-04-12T02:47:19.333Z,8.30
2018-04-12T02:49:46.871Z,8.40
2018-04-12T02:52:15.163Z,8.30
2018-04-12T02:54:42.735Z,8.30
2018-04-12T02:57:10.296Z,8.30
2018-04-12T02:59:37.816Z,8.20
2018-04-12T03:02:06.121Z,8.20
2018-04-12T03:04:33.698Z,8.20
2018-04-12T03:07:01.230Z,8.20
2018-04-12T03:09:29.670Z,8.10
2018-04-12T03:11:57.210Z,8.10
2018-04-12T03:14:24.752Z,8.10
2018-04-12T03:16:52.289Z,8.10
2018-04-12T03:19:20.587Z,8.00
2018-04-12T03:21:48.117Z,8.00
2018-04-12T03:24:16.436Z,7.90
2018-04-12T03:26:43.957Z,7.90
2018-04-12T03:29:12.246Z,7.60
2018-04-12T03:31:40.552Z,7.40
2018-04-12T03:34:08.079Z,7.40
2018-04-12T03:36:36.389Z,7.40
2018-04-12T03:39:03.931Z,7.30
2018-04-12T03:41:31.477Z,7.30
2018-04-12T03:43:59.783Z,7.30
2018-04-12T03:46:27.340Z,7.30
2018-04-12T03:48:54.868Z,7.20
2018-04-12T03:51:23.186Z,7.30
2018-04-12T03:53:50.727Z,7.30
2018-04-12T03:56:19.037Z,7.30
2018-04-12T03:58:46.594Z,7.30
2018-04-12T04:01:14.122Z,7.40
2018-04-12T04:03:42.423Z,7.40
2018-04-12T04:06:09.952Z,7.40
2018-04-12T04:08:38.276Z,7.80
2018-04-12T04:11:05.934Z,7.80
2018-04-12T04:13:33.480Z,8.10
2018-04-12T04:16:12.932Z,8.30
2018-04-12T04:18:52.089Z,8.40
2018-04-12T04:21:19.721Z,8.50
2018-04-12T04:23:47.248Z,8.60
2018-04-12T04:26:15.548Z,8.70
2018-04-12T04:28:43.120Z,8.70
2018-04-12T04:31:10.681Z,8.80
2018-04-12T04:33:38.208Z,8.80
2018-04-12T04:36:06.537Z,8.90
2018-04-12T04:38:34.189Z,8.90
2018-04-12T04:41:01.754Z,8.90
2018-04-12T04:43:29.407Z,9.00
2018-04-12T04:45:56.948Z,9.00
2018-04-12T04:48:25.236Z,9.00
2018-04-12T04:50:52.790Z,9.00
2018-04-12T04:53:20.320Z,9.00
2018-04-12T04:55:47.845Z,9.00
2018-04-12T04:58:15.392Z,9.10
2018-04-12T05:00:42.928Z,9.10
2018-04-12T05:03:10.463Z,9.10
2018-04-12T05:05:39.520Z,9.20
2018-04-12T05:08:07.065Z,9.10
2018-04-12T05:10:34.612Z,9.20
2018-04-12T05:13:02.170Z,9.20
2018-04-12T05:15:29.812Z,9.20
2018-04-12T05:17:57.297Z,9.20
2018-04-12T05:20:24.888Z,9.20
2018-04-12T05:22:52.423Z,9.30
2018-04-12T05:25:19.958Z,9.30
2018-04-12T05:27:48.315Z,9.40
2018-04-12T05:30:15.824Z,9.40
2018-04-12T05:32:43.371Z,9.40
2018-04-12T05:35:10.940Z,9.40
2018-04-12T05:37:38.472Z,9.50
2018-04-12T05:40:06.780Z,9.60
2018-04-12T05:42:34.325Z,9.50
2018-04-12T05:45:02.629Z,9.60
2018-04-12T05:47:30.163Z,9.60
2018-04-12T05:49:58.503Z,9.70
2018-04-12T05:52:26.042Z,9.70
2018-04-12T05:54:53.574Z,9.80
2018-04-12T05:57:21.129Z,9.80
2018-04-12T05:59:48.721Z,9.80
2018-04-12T06:02:16.275Z,9.80
2018-04-12T06:04:43.827Z,9.80
2018-04-12T06:07:11.367Z,9.90
2018-04-12T06:09:39.681Z,9.90
2018-04-12T06:12:07.243Z,9.90
2018-04-12T06:14:34.777Z,9.90
2018-04-12T06:17:02.326Z,10.00
2018-04-12T06:19:30.837Z,9.90
2018-04-12T06:21:58.495Z,9.90
2018-04-12T06:24:26.062Z,9.90
2018-04-12T06:26:53.616Z,9.90
2018-04-12T06:29:21.150Z,9.90
2018-04-12T06:31:49.558Z,9.90
2018-04-12T06:34:17.098Z,9.90
2018-04-12T06:36:44.635Z,9.90
2018-04-12T06:39:13.057Z,10.10
2018-04-12T06:41:40.718Z,10.00
2018-04-12T06:44:08.263Z,10.10
2018-04-12T06:46:35.806Z,10.20
2018-04-12T06:49:04.115Z,10.20
2018-04-12T06:51:31.668Z,10.20
2018-04-12T06:53:59.264Z,10.20
2018-04-12T06:56:26.893Z,10.10
2018-04-12T06:58:54.433Z,10.10
2018-04-12T07:01:22.831Z,10.20
2018-04-12T07:03:50.377Z,10.20
2018-04-12T07:06:17.917Z,10.30
2018-04-12T07:08:46.218Z,10.30
2018-04-12T07:11:13.776Z,10.20
2018-04-12T07:13:41.304Z,10.30
2018-04-12T07:16:10.343Z,10.20
2018-04-12T07:18:37.928Z,10.30
2018-04-12T07:21:05.462Z,10.30
2018-04-12T07:23:33.137Z,10.40
2018-04-12T07:26:00.712Z,10.40
2018-04-12T07:28:28.354Z,10.40
2018-04-12T07:30:55.896Z,10.50
2018-04-12T07:33:23.464Z,10.50
2018-04-12T07:35:51.012Z,10.60
2018-04-12T07:38:18.573Z,10.70
2018-04-12T07:40:46.134Z,10.60
2018-04-12T07:43:13.688Z,10.60
2018-04-12T07:45:41.245Z,10.70
2018-04-12T07:48:09.549Z,10.70
2018-04-12T07:50:37.166Z,10.70
2018-04-12T07:53:04.731Z,10.70
2018-04-12T07:55:33.155Z,10.60
2018-04-12T07:58:00.726Z,10.60
2018-04-12T08:00:28.381Z,10.60
2018-04-12T08:02:55.930Z,10.60
2018-04-12T08:05:23.466Z,10.60
2018-04-12T08:07:51.774Z,10.70
2018-04-12T08:10:19.388Z,10.70
2018-04-12T08:12:47.698Z,10.70
2018-04-12T08:15:15.242Z,10.70
2018-04-12T08:17:43.556Z,10.80
2018-04-12T08:20:11.092Z,10.80
2018-04-12T08:22:38.628Z,10.90
2018-04-12T08:25:06.964Z,10.80
2018-04-12T08:27:34.549Z,10.80
2018-04-12T08:30:02.092Z,10.70
2018-04-12T08:32:29.644Z,10.70
2018-04-12T08:34:57.180Z,10.70
2018-04-12T08:37:24.714Z,10.70
2018-04-12T08:39:53.027Z,10.70
2018-04-12T08:42:20.574Z,10.70
2018-04-12T08:44:48.115Z,10.80
2018-04-12T08:47:16.425Z,10.70
2018-04-12T08:49:43.961Z,10.70
2018-04-12T08:52:11.502Z,10.70
2018-04-12T08:54:39.831Z,10.70
2018-04-12T08:57:07.369Z,10.70
2018-04-12T08:59:34.953Z,10.80
2018-04-12T09:02:02.498Z,10.70
2018-04-12T09:04:30.049Z,10.70
2018-04-12T09:06:57.597Z,10.60
2018-04-12T09:09:25.937Z,10.60
2018-04-12T09:11:53.477Z,10.50
2018-04-12T09:14:21.003Z,10.50
2018-04-12T09:16:48.549Z,10.60
2018-04-12T09:19:16.968Z,10.60
2018-04-12T09:21:44.507Z,10.50
2018-04-12T09:24:12.050Z,10.60
2018-04-12T09:26:40.364Z,10.70
2018-04-12T09:29:07.918Z,10.60
2018-04-12T09:31:35.454Z,10.60
2018-04-12T09:34:03.751Z,10.60
2018-04-12T09:36:31.290Z,10.50
2018-04-12T09:38:59.595Z,10.50
2018-04-12T09:41:27.122Z,10.50
2018-04-12T09:43:55.427Z,10.50
2018-04-12T09:46:22.986Z,10.50
2018-04-12T09:48:50.526Z,10.50
2018-04-12T09:51:18.839Z,10.60
2018-04-12T09:53:46.380Z,10.50
2018-04-12T09:56:13.952Z,10.60
2018-04-12T09:58:41.476Z,10.70
2018-04-12T10:01:15.870Z,10.70
2018-04-12T10:03:44.310Z,10.60
2018-04-12T10:06:17.476Z,10.60
2018-04-12T10:11:43.739Z,10.80
2018-04-12T10:14:11.271Z,10.80
2018-04-12T10:16:39.588Z,11.00
2018-04-12T10:19:07.132Z,11.00
2018-04-12T10:21:34.666Z,11.10
2018-04-12T10:24:02.972Z,11.20
2018-04-12T10:26:30.946Z,11.10
2018-04-12T10:28:58.482Z,11.10
2018-04-12T10:31:26.778Z,11.30
2018-04-12T10:33:54.316Z,11.20
2018-04-12T10:36:22.750Z,11.30
2018-04-12T10:38:50.299Z,11.30
2018-04-12T10:41:17.846Z,11.30
2018-04-12T10:43:45.443Z,11.40
2018-04-12T10:46:12.982Z,11.40
2018-04-12T10:48:40.528Z,11.50
2018-04-12T10:51:08.056Z,11.60
2018-04-12T10:53:36.357Z,11.70
2018-04-12T10:56:03.910Z,11.70
2018-04-12T10:58:32.199Z,11.80
2018-04-12T11:00:59.773Z,11.80
2018-04-12T11:03:27.366Z,11.80
2018-04-12T11:05:54.876Z,11.90
2018-04-12T11:08:22.419Z,11.90
2018-04-12T11:10:50.832Z,12.10
2018-04-12T11:13:18.493Z,12.00
2018-04-12T11:15:46.041Z,12.10
2018-04-12T11:18:13.777Z,12.10
2018-04-12T11:20:41.267Z,12.20
2018-04-12T11:23:08.823Z,12.20
2018-04-12T11:25:36.385Z,12.40
2018-04-12T11:28:03.968Z,12.40
2018-04-12T11:30:31.511Z,12.50
2018-04-12T11:32:59.073Z,12.60
2018-04-12T11:35:26.603Z,12.60
2018-04-12T11:37:54.159Z,12.60
2018-04-12T11:40:22.605Z,12.60
2018-04-12T11:42:50.189Z,12.70
2018-04-12T11:45:17.703Z,12.70
2018-04-12T11:47:45.239Z,12.70
2018-04-12T11:50:12.774Z,12.70
2018-04-12T11:52:41.067Z,12.80
2018-04-12T11:55:09.385Z,12.80
2018-04-12T11:57:36.917Z,12.80
2018-04-12T12:00:04.442Z,12.90
2018-04-12T12:02:32.048Z,13.00
2018-04-12T12:04:59.602Z,13.10
2018-04-12T12:07:27.134Z,13.20
2018-04-12T12:09:55.446Z,13.10
2018-04-12T12:12:23.016Z,13.10
2018-04-12T12:14:50.543Z,13.10
2018-04-12T12:17:18.844Z,13.00
2018-04-12T12:19:46.386Z,13.00
2018-04-12T12:22:13.925Z,12.90
2018-04-12T12:24:42.250Z,12.80
2018-04-12T12:27:09.779Z,12.80
2018-04-12T12:29:38.085Z,12.80
2018-04-12T12:32:05.638Z,12.80
2018-04-12T12:34:33.172Z,12.80
2018-04-12T12:37:01.481Z,13.10
2018-04-12T12:39:29.034Z,13.10
2018-04-12T12:41:56.572Z,13.10
2018-04-12T12:44:24.873Z,13.40
2018-04-12T12:46:52.438Z,13.40
2018-04-12T12:49:19.987Z,13.40
2018-04-12T12:51:47.528Z,13.50
2018-04-12T12:54:15.846Z,13.70
2018-04-12T12:56:43.384Z,13.70
2018-04-12T12:59:10.958Z,13.60
2018-04-12T13:01:38.496Z,13.50
2018-04-12T13:04:06.021Z,13.50
2018-04-12T13:06:33.655Z,13.50
2018-04-12T13:09:01.205Z,13.50
2018-04-12T13:11:28.735Z,13.40
2018-04-12T13:13:56.317Z,13.50
2018-04-12T13:16:23.859Z,13.60
2018-04-12T13:18:52.155Z,13.70
2018-04-12T13:21:19.680Z,13.60
2018-04-12T13:23:48.005Z,13.90
2018-04-12T13:26:15.536Z,13.90
2018-04-12T13:28:43.066Z,14.00
2018-04-12T13:31:11.392Z,14.10
2018-04-12T13:33:38.945Z,14.10
2018-04-12T13:36:06.508Z,14.30
2018-04-12T13:38:34.068Z,14.20
2018-04-12T13:41:01.606Z,14.10
2018-04-12T13:43:29.155Z,14.10
2018-04-12T13:45:57.475Z,14.30
2018-04-12T13:48:25.031Z,14.30
2018-04-12T13:50:52.568Z,14.50
2018-04-12T13:53:20.126Z,14.50
2018-04-12T13:55:47.674Z,14.60
2018-04-12T13:58:15.981Z,14.30
2018-04-12T14:00:43.530Z,14.30
2018-04-12T14:03:11.068Z,14.30
2018-04-12T14:05:38.615Z,14.30
2018-04-12T14:08:06.154Z,14.40
2018-04-12T14:10:33.760Z,14.40
2018-04-12T14:13:02.064Z,14.60
2018-04-12T14:15:29.649Z,14.60
2018-04-12T14:17:57.292Z,14.70
2018-04-12T14:20:24.917Z,14.60
2018-04-12T14:22:53.215Z,14.60
2018-04-12T14:25:20.741Z,14.60
2018-04-12T14:27:49.071Z,14.90
2018-04-12T14:30:16.611Z,14.80
2018-04-12T14:32:44.131Z,14.90
2018-04-12T14:35:11.673Z,14.60
2018-04-12T14:37:39.229Z,14.70
2018-04-12T14:40:06.781Z,14.70
2018-04-12T14:42:34.327Z,14.70
2018-04-12T14:45:01.867Z,14.90
2018-04-12T14:47:29.413Z,15.00
2018-04-12T14:49:57.001Z,15.20
2018-04-12T14:52:24.559Z,15.20
2018-04-12T14:54:52.135Z,15.40
2018-04-12T14:57:19.757Z,15.40
2018-04-12T14:59:48.193Z,15.70
2018-04-12T15:02:15.824Z,15.60
2018-04-12T15:04:43.389Z,15.70
2018-04-12T15:07:10.934Z,15.70
2018-04-12T15:09:38.523Z,15.70
2018-04-12T15:12:09.573Z,15.70
2018-04-12T15:14:38.025Z,15.20
2018-04-12T15:17:05.560Z,15.20
2018-04-12T15:19:33.859Z,15.10
2018-04-12T15:22:01.410Z,15.10
2018-04-12T15:24:28.947Z,15.10
2018-04-12T15:26:57.252Z,15.10
2018-04-12T15:29:24.775Z,15.10
2018-04-12T15:31:52.306Z,15.10
2018-04-12T15:34:19.852Z,15.20
2018-04-12T15:36:47.407Z,15.20
2018-04-12T15:39:14.976Z,15.30
2018-04-12T15:41:43.255Z,15.40
2018-04-12T15:44:10.800Z,15.40
2018-04-12T15:46:38.402Z,15.50
2018-04-12T15:49:05.912Z,15.50
2018-04-12T15:51:33.459Z,15.60
2018-04-12T15:54:01.073Z,15.60
2018-04-12T15:56:28.723Z,15.60
2018-04-12T15:58:56.266Z,15.60
2018-04-12T16:01:23.881Z,15.70
2018-04-12T16:03:51.478Z,15.70
2018-04-12T16:06:19.032Z,15.50
2018-04-12T16:08:46.630Z,15.50
2018-04-12T16:11:14.164Z,15.30
2018-04-12T16:13:41.700Z,15.30
2018-04-12T16:16:09.992Z,14.90
2018-04-12T16:18:37.532Z,14.90
2018-04-12T16:21:05.875Z,15.00
2018-04-12T16:23:33.512Z,15.00
2018-04-12T16:26:01.044Z,15.20
2018-04-12T16:28:28.617Z,15.30
2018-04-12T16:30:56.125Z,15.40
2018-04-12T16:33:23.649Z,15.50
2018-04-12T16:35:51.184Z,15.50
2018-04-12T16:38:18.723Z,15.60
2018-04-12T16:40:47.029Z,15.70
2018-04-12T16:43:14.561Z,15.70
2018-04-12T16:45:42.875Z,15.70
2018-04-12T16:48:10.398Z,15.60
2018-04-12T16:50:38.717Z,15.50
2018-04-12T16:53:06.278Z,15.50
2018-04-12T16:55:33.819Z,15.50
2018-04-12T16:58:01.345Z,15.60
2018-04-12T17:00:28.878Z,15.50
2018-04-12T17:02:56.456Z,15.50
2018-04-12T17:05:23.994Z,15.50
2018-04-12T17:07:51.527Z,15.50
2018-04-12T17:10:19.051Z,15.60
2018-04-12T17:12:47.371Z,15.60
2018-04-12T17:15:14.908Z,15.60
2018-04-12T17:17:43.205Z,15.50
2018-04-12T17:20:10.747Z,15.50
2018-04-12T17:22:38.285Z,15.50
2018-04-12T17:25:06.577Z,15.40
2018-04-12T17:27:34.895Z,15.40
2018-04-12T17:30:02.431Z,15.40
2018-04-12T17:32:29.970Z,15.40
2018-04-12T17:34:58.285Z,15.40
2018-04-12T17:37:25.808Z,15.40
2018-04-12T17:39:54.122Z,15.30
2018-04-12T17:42:21.658Z,15.30
2018-04-12T17:44:49.189Z,15.30
2018-04-12T17:47:16.744Z,15.20
2018-04-12T17:49:44.304Z,15.10
2018-04-12T17:52:11.845Z,15.10
2018-04-12T17:54:39.455Z,15.10
2018-04-12T17:57:07.764Z,15.10
2018-04-12T17:59:35.289Z,15.10
2018-04-12T18:02:03.601Z,15.20
2018-04-12T18:04:31.153Z,15.10
2018-04-12T18:06:58.720Z,15.10
2018-04-12T18:09:26.292Z,15.10
2018-04-12T18:11:53.931Z,15.10
2018-04-12T18:14:21.471Z,15.10
2018-04-12T18:16:49.777Z,15.10
2018-04-12T18:19:17.327Z,15.10
2018-04-12T18:21:44.866Z,15.10
2018-04-12T18:24:13.276Z,15.00
2018-04-12T18:26:40.834Z,15.00
2018-04-12T18:29:08.369Z,15.00
2018-04-12T18:31:36.655Z,14.70
2018-04-12T18:34:04.206Z,14.70
2018-04-12T18:36:32.606Z,14.60
2018-04-12T18:39:00.158Z,14.60
2018-04-12T18:41:27.730Z,14.60
2018-04-12T18:43:55.268Z,14.60
2018-04-12T18:46:22.838Z,14.60
2018-04-12T18:48:51.126Z,14.60
2018-04-12T18:51:18.655Z,14.60
2018-04-12T18:53:47.001Z,14.50
2018-04-12T18:56:14.550Z,14.50
2018-04-12T18:58:42.201Z,14.50
2018-04-12T19:01:09.738Z,14.40
2018-04-12T19:03:37.297Z,14.30
2018-04-12T19:06:04.836Z,14.20
2018-04-12T19:08:33.143Z,14.10
2018-04-12T19:11:00.816Z,14.10
2018-04-12T19:13:28.391Z,14.00
2018-04-12T19:15:55.929Z,13.90
2018-04-12T19:18:23.511Z,13.80
2018-04-12T19:20:51.078Z,13.80
2018-04-12T19:25:51.709Z,13.70
2018-04-12T19:28:19.264Z,13.70
2018-04-12T19:30:46.789Z,13.70
2018-04-12T19:33:15.126Z,13.50
2018-04-12T19:35:42.672Z,13.50
2018-04-12T19:38:10.226Z,13.50
2018-04-12T19:40:37.882Z,13.40
2018-04-12T19:43:05.422Z,13.30
2018-04-12T19:45:32.947Z,13.30
2018-04-12T19:48:01.266Z,13.20
2018-04-12T19:50:28.802Z,13.20
2018-04-12T19:52:57.107Z,13.10
2018-04-12T19:55:24.673Z,13.00
2018-04-12T19:57:52.249Z,13.00
2018-04-12T20:00:19.793Z,12.90
2018-04-12T20:02:47.392Z,12.90
2018-04-12T20:05:14.922Z,12.80
2018-04-12T20:07:42.495Z,12.80
2018-04-12T20:10:10.056Z,12.80
2018-04-12T20:12:37.583Z,12.80
2018-04-12T20:15:05.132Z,12.70
2018-04-12T20:17:32.706Z,12.70
2018-04-12T20:20:00.287Z,12.60
2018-04-12T20:22:27.816Z,12.50
2018-04-12T20:24:55.357Z,12.40
2018-04-12T20:27:23.687Z,12.30
2018-04-12T20:29:51.227Z,12.30
2018-04-12T20:32:18.760Z,12.20
2018-04-12T20:34:47.065Z,12.20
2018-04-12T20:37:14.608Z,12.10
2018-04-12T20:39:42.157Z,12.10
2018-04-12T20:42:10.482Z,12.00
2018-04-12T20:44:38.018Z,12.00
2018-04-12T20:47:05.570Z,12.00
2018-04-12T20:49:33.104Z,12.00
2018-04-12T20:52:01.414Z,11.90
2018-04-12T20:54:29.017Z,11.90
2018-04-12T20:56:56.536Z,11.90
2018-04-12T20:59:24.198Z,11.80
2018-04-12T21:01:51.744Z,11.80
2018-04-12T21:04:20.061Z,11.70
2018-04-12T21:06:47.593Z,11.60
2018-04-12T21:09:15.126Z,11.60
2018-04-12T21:11:43.420Z,11.60
2018-04-12T21:14:11.925Z,11.60
2018-04-12T21:16:39.639Z,11.50
2018-04-12T21:19:07.180Z,11.50
2018-04-12T21:21:34.714Z,11.50
2018-04-12T21:24:02.263Z,11.50
2018-04-12T21:26:29.805Z,11.50
2018-04-12T21:28:58.100Z,11.50
2018-04-12T21:31:25.645Z,11.50
2018-04-12T21:33:53.170Z,11.50
2018-04-12T21:36:20.798Z,11.50
2018-04-12T21:38:48.330Z,11.40
2018-04-12T21:41:15.869Z,11.40
2018-04-12T21:43:44.169Z,11.40
2018-04-12T21:46:11.716Z,11.40
2018-04-12T21:48:40.017Z,11.40
2018-04-12T21:51:07.558Z,11.30
2018-04-12T21:53:35.961Z,11.30
2018-04-12T21:56:03.493Z,11.30
2018-04-12T21:58:31.792Z,11.30
2018-04-12T22:00:59.344Z,11.30
2018-04-12T22:03:26.921Z,11.20
2018-04-12T22:05:54.463Z,11.20
2018-04-12T22:08:22.008Z,11.20
2018-04-12T22:10:50.304Z,11.10
2018-04-12T22:13:17.836Z,11.10
2018-04-12T22:15:46.147Z,11.10
2018-04-12T22:18:13.682Z,11.10
2018-04-12T22:20:41.990Z,11.00
2018-04-12T22:23:09.539Z,11.00
2018-04-12T22:25:37.068Z,11.00
2018-04-12T22:28:05.382Z,10.90
2018-04-12T22:30:32.945Z,10.90
2018-04-12T22:33:00.474Z,11.00
2018-04-12T22:35:28.782Z,10.90
2018-04-12T22:37:56.350Z,10.90
2018-04-12T22:40:23.881Z,10.90
2018-04-12T22:42:51.414Z,10.90
2018-04-12T22:45:18.975Z,10.90
2018-04-12T22:47:46.516Z,10.80
2018-04-12T22:50:14.046Z,10.80
2018-04-12T22:52:41.601Z,10.80
2018-04-12T22:55:09.162Z,10.70
2018-04-12T22:57:36.736Z,10.70
2018-04-12T23:00:04.283Z,10.70
2018-04-12T23:02:31.813Z,10.60
2018-04-12T23:05:00.111Z,10.60
2018-04-12T23:07:27.694Z,10.60
2018-04-12T23:09:55.221Z,10.60
2018-04-12T23:12:23.527Z,10.50
2018-04-12T23:14:51.071Z,10.50
2018-04-12T23:17:18.645Z,10.50
2018-04-12T23:19:46.183Z,10.50
2018-04-12T23:22:13.725Z,10.50
2018-04-12T23:24:42.041Z,10.50
2018-04-12T23:27:09.569Z,10.50
2018-04-12T23:29:37.881Z,10.50
2018-04-12T23:32:05.412Z,10.50
2018-04-12T23:34:33.707Z,10.50
2018-04-12T23:37:01.502Z,10.40
2018-04-12T23:39:29.042Z,10.50
2018-04-12T23:41:56.783Z,10.50
2018-04-12T23:44:25.099Z,10.40
2018-04-12T23:46:52.649Z,10.40
2018-04-12T23:49:20.177Z,10.50
2018-04-12T23:51:48.485Z,10.40
2018-04-12T23:54:16.016Z,10.40
2018-04-12T23:56:44.429Z,10.40
2018-04-12T23:59:11.975Z,10.30
